createdAt,value
2019-02-07T00:01:02.644Z,24.47
2019-02-07T00:03:30.853Z,23.27
2019-02-07T00:05:58.825Z,23.73
2019-02-07T00:08:26.886Z,24.43
2019-02-07T00:10:54.904Z,24.30
2019-02-07T00:13:23.047Z,23.87
2019-02-07T00:15:51.266Z,25.17
2019-02-07T00:18:19.369Z,25.43
2019-02-07T00:20:47.457Z,24.80
2019-02-07T00:23:15.779Z,24.47
2019-02-07T00:25:44.062Z,24.07
2019-02-07T00:28:12.433Z,24.47
2019-02-07T00:30:40.497Z,24.87
2019-02-07T00:33:08.239Z,24.57
2019-02-07T00:35:36.220Z,24.40
2019-02-07T00:38:04.359Z,24.10
2019-02-07T00:40:32.074Z,24.97
2019-02-07T00:43:00.070Z,23.37
2019-02-07T00:45:28.311Z,23.67
2019-02-07T00:47:56.214Z,24.13
2019-02-07T00:50:24.345Z,25.23
2019-02-07T00:52:52.101Z,23.10
2019-02-07T00:55:20.473Z,24.47
2019-02-07T00:57:48.425Z,23.97
2019-02-07T01:00:19.313Z,23.17
2019-02-07T01:02:47.260Z,23.70
2019-02-07T01:05:15.944Z,24.03
2019-02-07T01:07:44.058Z,22.97
2019-02-07T01:10:13.059Z,24.73
2019-02-07T01:12:41.282Z,23.83
2019-02-07T01:15:09.871Z,24.67
2019-02-07T01:17:37.734Z,23.67
2019-02-07T01:20:06.737Z,23.80
2019-02-07T01:22:34.716Z,24.00
2019-02-07T01:25:03.030Z,23.53
2019-02-07T01:27:31.333Z,25.20
2019-02-07T01:29:59.228Z,23.50
2019-02-07T01:32:27.209Z,24.20
2019-02-07T01:34:55.236Z,22.47
2019-02-07T01:37:23.211Z,23.30
2019-02-07T01:39:51.148Z,23.70
2019-02-07T01:42:19.028Z,23.37
2019-02-07T01:44:47.357Z,24.37
2019-02-07T01:47:15.398Z,24.30
2019-02-07T01:49:43.213Z,24.63
2019-02-07T01:52:11.302Z,25.10
2019-02-07T01:54:39.366Z,24.47
2019-02-07T01:57:07.483Z,25.20
2019-02-07T01:59:35.388Z,24.87
2019-02-07T02:02:03.714Z,23.77
2019-02-07T02:04:31.783Z,26.13
2019-02-07T02:06:59.725Z,25.97
2019-02-07T02:09:27.779Z,24.93
2019-02-07T02:11:55.644Z,25.20
2019-02-07T02:14:23.507Z,24.57
2019-02-07T02:16:51.395Z,24.03
2019-02-07T02:19:20.354Z,24.47
2019-02-07T02:21:48.571Z,24.37
2019-02-07T02:24:16.686Z,25.07
2019-02-07T02:26:44.709Z,25.10
2019-02-07T02:29:12.869Z,23.93
2019-02-07T02:31:40.906Z,25.57
2019-02-07T02:34:09.186Z,24.57
2019-02-07T02:36:37.146Z,24.97
2019-02-07T02:39:07.593Z,25.43
2019-02-07T02:41:35.583Z,24.70
2019-02-07T02:44:03.651Z,24.03
2019-02-07T02:46:31.720Z,25.50
2019-02-07T02:48:59.623Z,26.30
2019-02-07T02:51:27.903Z,25.00
2019-02-07T02:53:58.200Z,25.53
2019-02-07T02:56:26.068Z,25.27
2019-02-07T02:58:56.795Z,27.03
2019-02-07T03:01:44.082Z,25.70
2019-02-07T03:04:23.843Z,24.80
2019-02-07T03:07:09.650Z,25.00
2019-02-07T03:09:55.515Z,24.53
2019-02-07T03:12:54.845Z,25.47
2019-02-07T03:15:49.272Z,25.37
2019-02-07T03:18:29.259Z,25.13
2019-02-07T03:21:11.802Z,27.20
2019-02-07T03:24:02.139Z,25.10
2019-02-07T03:26:48.440Z,24.70
2019-02-07T03:29:38.995Z,26.43
2019-02-07T03:32:29.946Z,25.23
2019-02-07T03:35:15.859Z,25.63
2019-02-07T03:38:15.548Z,24.30
2019-02-07T03:40:52.036Z,24.23
2019-02-07T03:43:38.211Z,24.97
2019-02-07T03:46:28.574Z,26.03
2019-02-07T03:49:23.071Z,25.60
2019-02-07T03:52:08.883Z,25.80
2019-02-07T03:54:54.918Z,27.97
2019-02-07T03:57:42.360Z,26.03
2019-02-07T04:00:30.077Z,25.17
2019-02-07T04:03:16.357Z,25.03
2019-02-07T04:06:06.815Z,26.50
2019-02-07T04:08:52.893Z,25.43
2019-02-07T04:11:39.066Z,26.67
2019-02-07T04:14:32.471Z,24.87
2019-02-07T04:17:14.140Z,26.37
2019-02-07T04:20:00.366Z,24.30
2019-02-07T04:22:36.906Z,25.03
2019-02-07T04:25:22.769Z,25.33
2019-02-07T04:28:13.565Z,25.63
2019-02-07T04:30:59.871Z,24.47
2019-02-07T04:33:46.126Z,25.13
2019-02-07T04:36:35.376Z,25.47
2019-02-07T04:39:44.645Z,24.53
2019-02-07T04:42:35.010Z,24.73
2019-02-07T04:45:26.640Z,24.20
2019-02-07T04:48:12.445Z,24.67
2019-02-07T04:51:18.444Z,25.83
2019-02-07T04:54:12.856Z,27.90
2019-02-07T04:56:52.001Z,24.70
2019-02-07T04:59:45.363Z,26.83
2019-02-07T05:02:51.297Z,26.57
2019-02-07T05:05:53.668Z,26.37
2019-02-07T05:08:56.343Z,25.77
2019-02-07T05:11:43.179Z,25.27
2019-02-07T05:14:26.938Z,26.97
2019-02-07T05:17:29.347Z,26.53
2019-02-07T05:20:15.583Z,25.90
2019-02-07T05:23:01.900Z,26.43
2019-02-07T05:25:49.710Z,26.13
2019-02-07T05:28:49.049Z,29.10
2019-02-07T05:31:35.238Z,26.07
2019-02-07T05:34:28.339Z,25.43
2019-02-07T05:37:06.931Z,26.77
2019-02-07T05:39:54.019Z,24.83
2019-02-07T05:42:39.926Z,25.47
2019-02-07T05:45:43.654Z,26.73
2019-02-07T05:48:37.395Z,26.03
2019-02-07T05:51:27.773Z,25.83
2019-02-07T05:54:18.484Z,25.40
2019-02-07T05:57:08.972Z,25.40
2019-02-07T06:00:02.190Z,24.23
2019-02-07T06:02:36.444Z,25.10
2019-02-07T06:05:23.156Z,24.60
2019-02-07T06:08:13.364Z,24.07
2019-02-07T06:10:59.304Z,22.83
2019-02-07T06:14:02.053Z,23.03
2019-02-07T06:16:48.056Z,25.13
2019-02-07T06:19:45.148Z,23.93
2019-02-07T06:22:32.540Z,24.60
2019-02-07T06:25:29.205Z,23.23
2019-02-07T06:28:14.377Z,23.90
2019-02-07T06:31:17.062Z,24.30
2019-02-07T06:34:09.739Z,23.90
2019-02-07T06:37:04.272Z,24.37
2019-02-07T06:39:45.935Z,25.10
2019-02-07T06:42:32.710Z,25.53
2019-02-07T06:45:09.835Z,24.07
2019-02-07T06:47:56.115Z,24.17
2019-02-07T06:50:49.367Z,23.40
2019-02-07T06:53:39.719Z,27.40
2019-02-07T06:56:26.073Z,36.83
2019-02-07T06:59:19.644Z,41.27
2019-02-07T07:02:05.357Z,37.63
2019-02-07T07:04:52.761Z,34.00
2019-02-07T07:07:55.052Z,33.57
2019-02-07T07:10:51.190Z,34.97
2019-02-07T07:13:25.513Z,34.10
2019-02-07T07:16:08.336Z,35.57
2019-02-07T07:18:58.583Z,32.73
2019-02-07T07:21:52.780Z,29.70
2019-02-07T07:24:35.833Z,28.13
2019-02-07T07:27:18.746Z,28.43
2019-02-07T07:30:04.449Z,28.43
2019-02-07T07:33:00.461Z,28.63
2019-02-07T07:35:53.734Z,26.50
2019-02-07T07:38:40.170Z,27.40
2019-02-07T07:41:30.155Z,27.57
2019-02-07T07:44:17.516Z,28.63
2019-02-07T07:47:03.420Z,27.30
2019-02-07T07:49:59.774Z,27.63
2019-02-07T07:52:52.110Z,26.83
2019-02-07T07:55:32.132Z,27.37
2019-02-07T07:58:18.649Z,27.70
2019-02-07T08:01:21.007Z,26.83
2019-02-07T08:04:08.554Z,27.67
2019-02-07T08:06:51.980Z,26.37
2019-02-07T08:09:40.063Z,25.67
2019-02-07T08:12:27.096Z,26.90
2019-02-07T08:15:13.129Z,26.60
2019-02-07T08:17:58.780Z,27.20
2019-02-07T08:20:46.352Z,27.60
2019-02-07T08:23:22.241Z,27.10
2019-02-07T08:26:03.592Z,25.33
2019-02-07T08:28:51.733Z,26.23
2019-02-07T08:31:48.005Z,25.27
2019-02-07T08:34:38.473Z,25.37
2019-02-07T08:37:43.950Z,25.07
2019-02-07T08:40:42.041Z,24.50
2019-02-07T08:43:44.597Z,25.97
2019-02-07T08:46:31.307Z,24.27
2019-02-07T08:49:24.347Z,25.73
2019-02-07T08:52:10.602Z,24.67
2019-02-07T08:54:49.171Z,23.33
2019-02-07T08:57:35.132Z,23.13
2019-02-07T09:00:37.975Z,22.20
2019-02-07T09:03:40.721Z,22.73
2019-02-07T09:06:22.829Z,21.73
2019-02-07T09:09:19.496Z,21.47
2019-02-07T09:12:12.795Z,21.00
2019-02-07T09:14:59.450Z,24.10
2019-02-07T09:17:52.808Z,22.40
2019-02-07T09:20:27.825Z,22.83
2019-02-07T09:23:03.552Z,22.93
2019-02-07T09:26:05.943Z,23.57
2019-02-07T09:29:11.485Z,23.10
2019-02-07T09:31:58.924Z,23.40
2019-02-07T09:34:46.398Z,23.30
2019-02-07T09:37:45.742Z,24.77
2019-02-07T09:40:32.904Z,25.03
2019-02-07T09:43:18.802Z,24.03
2019-02-07T09:46:05.913Z,23.60
2019-02-07T09:49:01.791Z,22.70
2019-02-07T09:51:43.528Z,22.10
2019-02-07T09:54:45.883Z,22.50
2019-02-07T09:57:42.185Z,22.30
2019-02-07T10:00:34.092Z,21.57
2019-02-07T10:03:24.677Z,21.47
2019-02-07T10:06:07.334Z,21.33
2019-02-07T10:08:48.746Z,20.73
2019-02-07T10:11:28.826Z,19.53
2019-02-07T10:14:22.655Z,19.67
2019-02-07T10:17:27.845Z,19.40
2019-02-07T10:20:27.099Z,21.10
2019-02-07T10:23:26.371Z,19.33
2019-02-07T10:26:22.951Z,18.70
2019-02-07T10:29:15.720Z,17.33
2019-02-07T10:32:11.645Z,17.17
2019-02-07T10:34:50.793Z,18.67
2019-02-07T10:37:37.882Z,19.60
2019-02-07T10:40:30.654Z,17.63
2019-02-07T10:43:17.820Z,18.30
2019-02-07T10:46:21.530Z,18.63
2019-02-07T10:49:09.604Z,17.50
2019-02-07T10:52:02.892Z,17.67
2019-02-07T10:54:49.382Z,17.33
2019-02-07T10:57:34.846Z,17.27
2019-02-07T11:00:24.235Z,17.37
2019-02-07T11:03:14.990Z,15.63
2019-02-07T11:06:01.800Z,16.20
2019-02-07T11:08:47.592Z,14.53
2019-02-07T11:11:37.369Z,13.90
2019-02-07T11:14:23.718Z,14.93
2019-02-07T11:17:00.689Z,15.23
2019-02-07T11:19:57.050Z,14.77
2019-02-07T11:22:33.744Z,14.50
2019-02-07T11:25:28.440Z,15.43
2019-02-07T11:28:27.377Z,12.37
2019-02-07T11:31:16.610Z,15.20
2019-02-07T11:34:03.798Z,13.50
2019-02-07T11:36:58.193Z,12.30
2019-02-07T11:39:47.951Z,12.90
2019-02-07T11:42:32.278Z,12.43
2019-02-07T11:45:30.746Z,13.30
2019-02-07T11:48:21.904Z,13.60
2019-02-07T11:51:22.150Z,13.93
2019-02-07T11:54:09.314Z,14.30
2019-02-07T11:57:11.555Z,13.90
2019-02-07T11:59:58.628Z,15.97
2019-02-07T12:02:57.618Z,14.70
2019-02-07T12:05:46.785Z,15.17
2019-02-07T12:08:36.855Z,15.17
2019-02-07T12:11:23.256Z,13.93
2019-02-07T12:13:59.893Z,14.73
2019-02-07T12:16:51.740Z,14.27
2019-02-07T12:19:44.779Z,15.97
2019-02-07T12:22:28.818Z,14.63
2019-02-07T12:25:19.162Z,15.40
2019-02-07T12:28:06.024Z,14.67
2019-02-07T12:31:11.308Z,14.07
2019-02-07T12:33:51.385Z,15.07
2019-02-07T12:36:41.375Z,14.63
2019-02-07T12:39:26.063Z,14.70
2019-02-07T12:42:27.875Z,15.37
2019-02-07T12:45:09.468Z,15.70
2019-02-07T12:47:47.918Z,14.60
2019-02-07T12:50:37.902Z,14.73
2019-02-07T12:53:19.450Z,15.57
2019-02-07T12:56:22.537Z,15.17
2019-02-07T12:59:09.608Z,14.80
2019-02-07T13:01:45.100Z,16.27
2019-02-07T13:04:31.883Z,15.90
2019-02-07T13:07:19.061Z,15.80
2019-02-07T13:10:07.225Z,16.90
2019-02-07T13:12:51.627Z,17.80
2019-02-07T13:15:38.830Z,16.57
2019-02-07T13:18:18.062Z,16.47
2019-02-07T13:21:05.300Z,18.03
2019-02-07T13:23:59.432Z,17.67
2019-02-07T13:26:49.683Z,18.90
2019-02-07T13:29:43.530Z,18.10
2019-02-07T13:32:46.042Z,18.47
2019-02-07T13:35:39.560Z,18.80
2019-02-07T13:38:25.472Z,17.70
2019-02-07T13:41:12.664Z,18.23
2019-02-07T13:44:02.590Z,18.17
2019-02-07T13:46:55.783Z,17.10
2019-02-07T13:49:52.094Z,18.33
2019-02-07T13:52:43.737Z,18.93
2019-02-07T13:55:39.862Z,17.83
2019-02-07T13:58:43.609Z,20.13
2019-02-07T14:01:29.413Z,19.13
2019-02-07T14:04:09.787Z,18.00
2019-02-07T14:06:55.625Z,18.50
2019-02-07T14:09:41.419Z,18.30
2019-02-07T14:12:19.777Z,18.67
2019-02-07T14:15:04.060Z,18.30
2019-02-07T14:17:50.307Z,18.30
2019-02-07T14:20:35.904Z,18.07
2019-02-07T14:23:23.111Z,17.57
2019-02-07T14:26:08.994Z,16.70
2019-02-07T14:29:11.286Z,16.40
2019-02-07T14:32:07.564Z,16.20
2019-02-07T14:34:54.478Z,16.00
2019-02-07T14:37:41.548Z,15.43
2019-02-07T14:40:31.838Z,15.10
2019-02-07T14:43:17.206Z,14.03
2019-02-07T14:46:10.045Z,14.57
2019-02-07T14:48:37.666Z,14.90
2019-02-07T14:51:05.266Z,15.00
2019-02-07T14:53:32.825Z,14.70
2019-02-07T14:56:00.455Z,15.50
2019-02-07T14:58:28.034Z,15.70
2019-02-07T15:00:55.688Z,16.23
2019-02-07T15:03:23.869Z,14.37
2019-02-07T15:05:51.458Z,15.00
2019-02-07T15:08:19.048Z,16.53
2019-02-07T15:10:46.640Z,15.70
2019-02-07T15:13:14.298Z,16.20
2019-02-07T15:15:41.884Z,16.13
2019-02-07T15:18:09.529Z,16.17
2019-02-07T15:20:37.398Z,16.63
2019-02-07T15:23:05.099Z,18.23
2019-02-07T15:25:32.711Z,21.77
2019-02-07T15:28:00.368Z,23.50
2019-02-07T15:30:27.914Z,28.60
2019-02-07T15:32:55.547Z,28.67
2019-02-07T15:35:29.557Z,29.90
2019-02-07T15:37:57.701Z,28.83
2019-02-07T15:40:25.755Z,32.80
2019-02-07T15:42:53.961Z,33.60
2019-02-07T15:45:21.951Z,32.17
2019-02-07T15:47:49.603Z,31.70
2019-02-07T15:50:20.313Z,28.33
2019-02-07T15:52:48.631Z,28.40
2019-02-07T15:55:16.334Z,25.03
2019-02-07T15:57:43.994Z,26.20
2019-02-07T16:00:33.268Z,37.43
2019-02-07T16:03:04.572Z,34.80
2019-02-07T16:05:32.653Z,31.37
2019-02-07T16:08:00.378Z,28.40
2019-02-07T16:10:28.046Z,28.40
2019-02-07T16:12:55.673Z,27.93
2019-02-07T16:15:23.261Z,27.10
2019-02-07T16:17:50.910Z,26.40
2019-02-07T16:20:18.695Z,25.93
2019-02-07T16:22:46.635Z,27.53
2019-02-07T16:25:14.617Z,24.80
2019-02-07T16:27:42.404Z,25.50
2019-02-07T16:30:12.389Z,24.47
2019-02-07T16:32:40.131Z,24.47
2019-02-07T16:35:09.098Z,23.50
2019-02-07T16:37:36.978Z,24.53
2019-02-07T16:40:05.791Z,22.83
2019-02-07T16:42:33.397Z,23.13
2019-02-07T16:45:00.967Z,21.03
2019-02-07T16:47:29.682Z,22.10
2019-02-07T16:49:57.442Z,21.63
2019-02-07T16:52:25.051Z,21.60
2019-02-07T16:54:54.898Z,21.10
2019-02-07T16:57:22.650Z,21.03
2019-02-07T16:59:50.282Z,25.73
2019-02-07T17:02:18.026Z,25.50
2019-02-07T17:04:45.641Z,26.10
2019-02-07T17:07:13.408Z,28.97
2019-02-07T17:09:43.235Z,28.60
2019-02-07T17:12:11.487Z,27.70
2019-02-07T17:14:39.146Z,26.13
2019-02-07T17:17:06.732Z,25.30
2019-02-07T17:19:34.398Z,26.23
2019-02-07T17:22:02.000Z,25.73
2019-02-07T17:24:29.656Z,26.27
2019-02-07T17:26:57.239Z,25.73
2019-02-07T17:29:25.187Z,27.73
2019-02-07T17:31:53.143Z,27.23
2019-02-07T17:34:22.168Z,26.47
2019-02-07T17:36:50.739Z,27.07
2019-02-07T17:39:18.884Z,29.63
2019-02-07T17:41:49.503Z,31.37
2019-02-07T17:44:17.535Z,37.20
2019-02-07T17:46:45.155Z,36.93
2019-02-07T17:49:14.826Z,31.63
2019-02-07T17:51:42.346Z,35.17
2019-02-07T17:54:18.648Z,33.50
2019-02-07T17:56:39.503Z,31.43
2019-02-07T17:59:07.437Z,30.07
2019-02-07T18:01:35.484Z,28.20
2019-02-07T18:04:03.454Z,29.30
2019-02-07T18:06:31.324Z,33.03
2019-02-07T18:08:59.421Z,33.30
2019-02-07T18:11:26.996Z,37.37
2019-02-07T18:13:54.531Z,34.03
2019-02-07T18:16:22.116Z,37.57
2019-02-07T18:18:49.987Z,36.97
2019-02-07T18:21:17.528Z,35.13
2019-02-07T18:23:45.083Z,37.83
2019-02-07T18:26:12.750Z,35.53
2019-02-07T18:28:40.331Z,33.77
2019-02-07T18:31:07.953Z,33.57
2019-02-07T18:33:35.608Z,34.07
2019-02-07T18:36:03.298Z,31.37
2019-02-07T18:38:30.846Z,32.43
2019-02-07T18:40:58.511Z,32.33
2019-02-07T18:43:26.013Z,31.47
2019-02-07T18:45:53.652Z,32.27
2019-02-07T18:48:21.209Z,34.80
2019-02-07T18:50:50.569Z,36.80
2019-02-07T18:53:18.278Z,33.40
2019-02-07T18:55:45.994Z,31.67
2019-02-07T18:58:13.611Z,32.47
2019-02-07T19:00:41.319Z,31.80
2019-02-07T19:03:08.954Z,31.03
2019-02-07T19:05:36.661Z,29.83
2019-02-07T19:08:04.444Z,30.87
2019-02-07T19:10:32.081Z,31.63
2019-02-07T19:13:00.213Z,30.57
2019-02-07T19:15:34.968Z,29.80
2019-02-07T19:18:02.762Z,31.47
2019-02-07T19:20:30.339Z,29.27
2019-02-07T19:22:59.601Z,29.93
2019-02-07T19:25:27.170Z,29.17
2019-02-07T19:27:55.471Z,29.20
2019-02-07T19:30:25.832Z,32.23
2019-02-07T19:32:53.597Z,30.23
2019-02-07T19:35:21.177Z,29.33
2019-02-07T19:37:48.869Z,28.33
2019-02-07T19:40:16.511Z,27.67
2019-02-07T19:42:45.341Z,28.47
2019-02-07T19:45:13.785Z,29.47
2019-02-07T19:47:41.545Z,27.63
2019-02-07T19:50:12.092Z,26.87
2019-02-07T19:52:39.825Z,27.10
2019-02-07T19:55:10.475Z,27.23
2019-02-07T19:57:38.112Z,26.60
2019-02-07T20:00:08.845Z,26.87
2019-02-07T20:02:39.425Z,28.67
2019-02-07T20:05:07.899Z,30.33
2019-02-07T20:07:35.510Z,27.87
2019-02-07T20:10:05.125Z,27.53
2019-02-07T20:12:32.779Z,28.07
2019-02-07T20:15:00.375Z,28.23
2019-02-07T20:17:28.388Z,30.13
2019-02-07T20:19:55.964Z,27.03
2019-02-07T20:22:23.710Z,27.83
2019-02-07T20:24:51.305Z,30.07
2019-02-07T20:27:18.893Z,29.17
2019-02-07T20:29:46.826Z,28.80
2019-02-07T20:32:14.997Z,28.37
2019-02-07T20:34:42.970Z,29.37
2019-02-07T20:37:11.138Z,28.20
2019-02-07T20:39:39.931Z,28.83
2019-02-07T20:42:07.986Z,28.77
2019-02-07T20:44:35.901Z,29.27
2019-02-07T20:47:03.954Z,30.70
2019-02-07T20:49:32.017Z,33.90
2019-02-07T20:52:00.074Z,34.47
2019-02-07T20:54:28.191Z,29.67
2019-02-07T20:56:56.612Z,30.73
2019-02-07T20:59:24.583Z,30.57
2019-02-07T21:01:52.455Z,30.03
2019-02-07T21:04:20.447Z,28.93
2019-02-07T21:06:48.495Z,30.17
2019-02-07T21:09:16.421Z,28.97
2019-02-07T21:11:44.384Z,30.60
2019-02-07T21:14:12.579Z,29.60
2019-02-07T21:16:40.759Z,29.80
2019-02-07T21:19:08.762Z,29.07
2019-02-07T21:21:36.654Z,29.27
2019-02-07T21:24:04.862Z,29.20
2019-02-07T21:26:32.868Z,29.07
2019-02-07T21:29:00.791Z,30.23
2019-02-07T21:31:29.138Z,32.27
2019-02-07T21:33:58.271Z,29.53
2019-02-07T21:36:26.314Z,32.10
2019-02-07T21:38:54.294Z,31.10
2019-02-07T21:41:22.396Z,30.03
2019-02-07T21:43:50.236Z,31.93
2019-02-07T21:46:18.233Z,31.63
2019-02-07T21:48:46.502Z,31.67
2019-02-07T21:51:14.550Z,33.23
2019-02-07T21:53:42.566Z,32.70
2019-02-07T21:56:10.607Z,32.10
2019-02-07T21:58:38.593Z,31.50
2019-02-07T22:01:06.638Z,31.83
2019-02-07T22:03:34.722Z,31.17
2019-02-07T22:06:02.840Z,30.90
2019-02-07T22:08:30.840Z,31.60
2019-02-07T22:10:58.831Z,31.60
2019-02-07T22:13:26.924Z,29.93
2019-02-07T22:15:54.974Z,31.83
2019-02-07T22:18:23.007Z,32.30
2019-02-07T22:20:51.044Z,31.77
2019-02-07T22:23:19.229Z,30.43
2019-02-07T22:25:47.857Z,32.60
2019-02-07T22:28:15.908Z,30.60
2019-02-07T22:30:43.856Z,33.57
2019-02-07T22:33:11.749Z,32.70
2019-02-07T22:35:39.735Z,33.47
2019-02-07T22:38:08.083Z,33.97
2019-02-07T22:40:36.568Z,34.50
2019-02-07T22:43:04.910Z,34.40
2019-02-07T22:45:33.033Z,33.67
2019-02-07T22:48:01.093Z,34.10
2019-02-07T22:50:29.237Z,33.27
2019-02-07T22:52:57.480Z,34.63
2019-02-07T22:55:25.350Z,33.30
2019-02-07T22:57:53.519Z,34.27
2019-02-07T23:01:11.988Z,32.43
2019-02-07T23:03:49.420Z,33.10
2019-02-07T23:06:18.489Z,33.53
2019-02-07T23:08:46.376Z,32.70
2019-02-07T23:11:14.266Z,36.20
2019-02-07T23:13:42.018Z,35.27
2019-02-07T23:16:10.117Z,32.80
2019-02-07T23:18:38.347Z,33.90
2019-02-07T23:21:06.951Z,34.43
2019-02-07T23:23:35.928Z,33.03
2019-02-07T23:26:05.754Z,34.70
2019-02-07T23:28:33.908Z,33.53
2019-02-07T23:31:02.025Z,32.57
2019-02-07T23:33:29.966Z,32.77
2019-02-07T23:35:58.339Z,33.60
2019-02-07T23:38:26.338Z,34.33
2019-02-07T23:40:54.278Z,33.47
2019-02-07T23:43:22.166Z,32.57
2019-02-07T23:45:50.275Z,33.87
2019-02-07T23:48:18.297Z,35.17
2019-02-07T23:50:46.215Z,32.13
2019-02-07T23:53:15.317Z,32.67
2019-02-07T23:55:43.413Z,32.80
2019-02-07T23:58:11.515Z,33.47
